Lumberton, NC

2:28 AM EDT on August 28, 2015 (GMT -0400)
Fayetteville Road | | Change Station
CLOSE
Current Station
Personal Weather Station
Location: Lumberton, NC
Elevation: 126 ft
Nearby Weather Stations

Elev 126 ft 34.67 °N, 78.99 °W | Updated 7 seconds ago

Partly Cloudy
Partly Cloudy
69.6 °F
Feels Like 69.6 °F
N
0.0
Wind Variable Wind from NE
Gusts 0.0 mph

Today
High -- | Low -- °F
--% Chance of Precip.
Yesterday
High -- | Low -- °F
Precip. -- in
6:45 AM 7:48 PM
Waxing Gibbous, 97% visible
Pressure 30.09 in
Visibility 10.0 miles
Clouds Clear
Dew Point 66 °F
Humidity 90%
Rainfall 0.00 in
Snow Depth Not available.
UV 0 out of 12
Pollen 7.20 out of 12
Air Quality Not available.
Flu Activity Not available.
METAR KLBT 280554Z AUTO 04006KT 10SM CLR 21/18 A3009 RMK AO2 SLP188 T02110178 10244 20211 50002
Pressure 30.09 in
Visibility 10.0 miles
Clouds Clear
Dew Point 66 °F
Humidity 90%
Rainfall 0.00 in
Snow Depth Not available.
UV 0 out of 12
Pollen 7.20 out of 12
Air Quality Not available.
Flu Activity Not available.
METAR KLBT 280554Z AUTO 04006KT 10SM CLR 21/18 A3009 RMK AO2 SLP188 T02110178 10244 20211 50002
Tropical Storm Erika remains unorganized as it travels through the northeast Caribbean Sea. Puerto Rico could receive over a foot of rain from Erika, which could help the ongoing drought but could also produce dangerous mudslides. Erika is not forecast to reach hurricane strength until Monday when it curves northward along the east coast of Florida. Follow the live blog

10-Day Weather Forecast

×

Almanac

Astronomy

Aug. 28, 2015 Rise Set
Actual Time
Civil Twilight
Nautical Twilight
Astronomical Twilight
Moon
Length of Visible Light
Length of Day
Tomorrow will be .
, % of the Moon is Illuminated

Today's Extremes

State Highs State Lows

Community

WunderPhotos

Upload Photos

1,850,341 photos uploaded!

WunderBlogs® & News

Nearby

Air Quality

  Air Quality AQ Index Pollutant
Not available.

Snow Depth

Station Depth Elevation

Earthquake Activity

City Distance Mag. Time & Date
Minimum magnitude displayed is 2.5.

Coastal Water Temperatures

Place Temperature

Stations

Nearby Weather Stations

Station Location Temp. Windchill Dew Point Humidity Wind Precip. Elev Updated Type